createdAt,value
2018-07-23T05:54:20.302Z,30.25
2018-07-23T05:56:51.538Z,27.67
2018-07-23T05:59:33.864Z,27.42
2018-07-23T06:02:16.772Z,27.87
2018-07-23T06:05:03.296Z,26.87
2018-07-23T06:07:38.525Z,26.27
2018-07-23T06:10:10.099Z,26.30
2018-07-23T06:12:42.907Z,25.97
2018-07-23T06:15:15.528Z,24.85
2018-07-23T06:17:46.535Z,25.27
2018-07-23T06:20:19.719Z,24.47
2018-07-23T06:22:54.108Z,24.05
2018-07-23T06:25:24.820Z,24.18
2018-07-23T06:27:56.309Z,23.20
2018-07-23T06:30:27.434Z,23.60
2018-07-23T06:32:58.058Z,24.70
2018-07-23T06:35:34.205Z,23.47
2018-07-23T06:38:07.454Z,22.90
2018-07-23T06:40:41.367Z,23.00
2018-07-23T06:43:11.927Z,22.77
2018-07-23T06:45:54.210Z,22.05
2018-07-23T06:48:29.001Z,19.62
2018-07-23T06:50:58.208Z,20.92
2018-07-23T06:53:33.616Z,19.75
2018-07-23T06:56:06.158Z,20.17
2018-07-23T06:58:45.508Z,19.82
2018-07-23T07:01:26.033Z,19.80
2018-07-23T07:04:07.712Z,21.12
2018-07-23T07:06:46.400Z,18.67
2018-07-23T07:09:16.983Z,19.10
2018-07-23T07:11:46.848Z,20.60
2018-07-23T07:14:15.616Z,18.77
2018-07-23T07:16:44.790Z,22.62
2018-07-23T07:19:15.832Z,18.20
2018-07-23T07:21:45.769Z,20.37
2018-07-23T07:24:14.442Z,19.67
2018-07-23T07:26:45.639Z,20.02
2018-07-23T07:29:16.090Z,19.87
2018-07-23T07:31:46.171Z,19.20
2018-07-23T07:34:15.612Z,18.30
2018-07-23T07:36:44.458Z,19.07
2018-07-23T07:39:15.051Z,18.65
2018-07-23T07:41:45.418Z,17.67
2018-07-23T07:44:14.794Z,16.90
2018-07-23T07:46:43.645Z,17.82
2018-07-23T07:49:13.804Z,17.17
2018-07-23T07:51:43.236Z,18.32
2018-07-23T07:54:12.596Z,18.73
2018-07-23T07:56:47.132Z,17.85
2018-07-23T07:59:15.925Z,18.80
2018-07-23T08:01:46.222Z,16.30
2018-07-23T08:04:14.977Z,16.00
2018-07-23T08:06:44.468Z,14.25
2018-07-23T08:09:14.178Z,14.23
2018-07-23T08:11:43.949Z,15.00
2018-07-23T08:14:13.604Z,14.03
2018-07-23T08:16:43.835Z,14.75
2018-07-23T08:19:13.278Z,13.85
2018-07-23T08:21:42.166Z,13.55
2018-07-23T08:24:11.345Z,12.68
2018-07-23T08:26:42.138Z,14.23
2018-07-23T08:29:10.939Z,12.47
2018-07-23T08:31:40.485Z,11.38
2018-07-23T08:34:10.736Z,12.30
2018-07-23T08:36:40.234Z,11.43
2018-07-23T08:39:10.646Z,11.30
2018-07-23T08:41:40.275Z,9.83
2018-07-23T08:44:09.754Z,9.90
2018-07-23T08:46:38.341Z,10.60
2018-07-23T08:49:06.953Z,14.75
2018-07-23T08:51:35.475Z,10.93
2018-07-23T08:54:03.995Z,9.95
2018-07-23T08:56:32.522Z,10.25
2018-07-23T08:59:01.191Z,10.70
2018-07-23T09:01:29.688Z,16.67
2018-07-23T09:03:59.561Z,8.10
2018-07-23T09:06:28.062Z,8.30
2018-07-23T09:08:56.718Z,8.98
2018-07-23T09:11:25.908Z,9.53
2018-07-23T09:13:54.514Z,10.03
2018-07-23T09:16:23.017Z,8.95
2018-07-23T09:18:51.688Z,7.35
2018-07-23T09:21:20.205Z,6.05
2018-07-23T09:23:48.690Z,6.83
2018-07-23T09:26:17.340Z,6.90
2018-07-23T09:28:45.853Z,6.50
2018-07-23T09:31:14.454Z,5.47
2018-07-23T09:33:42.975Z,5.78
2018-07-23T09:36:11.582Z,5.10
2018-07-23T09:38:40.205Z,5.75
2018-07-23T09:41:09.267Z,5.78
2018-07-23T09:43:37.773Z,5.03
2018-07-23T09:46:07.312Z,5.95
2018-07-23T09:48:36.459Z,6.37
2018-07-23T09:51:04.993Z,5.10
2018-07-23T09:53:33.510Z,6.47
2018-07-23T09:56:02.008Z,6.53
2018-07-23T09:58:30.713Z,6.25
2018-07-23T10:01:04.470Z,4.80
2018-07-23T10:03:33.172Z,6.33
2018-07-23T10:06:01.614Z,7.75
2018-07-23T10:08:30.227Z,7.62
2018-07-23T10:10:58.849Z,5.05
2018-07-23T10:13:27.415Z,9.03
2018-07-23T10:15:55.961Z,4.60
2018-07-23T10:18:24.664Z,5.05
2018-07-23T10:20:53.157Z,4.70
2018-07-23T10:23:21.674Z,3.72
2018-07-23T10:25:50.463Z,3.67
2018-07-23T10:28:19.097Z,4.90
2018-07-23T10:30:47.634Z,5.37
2018-07-23T10:33:16.218Z,5.03
2018-07-23T10:35:44.952Z,3.95
2018-07-23T10:38:15.196Z,3.98
2018-07-23T10:40:45.114Z,4.25
2018-07-23T10:43:13.799Z,5.58
2018-07-23T10:45:43.688Z,4.42
2018-07-23T10:48:16.821Z,6.25
2018-07-23T10:50:46.114Z,5.53
2018-07-23T10:53:14.718Z,6.80
2018-07-23T10:55:43.317Z,5.00
2018-07-23T10:58:11.849Z,4.10
2018-07-23T11:00:40.368Z,4.30
2018-07-23T11:03:08.867Z,5.10
2018-07-23T11:05:37.412Z,5.50
2018-07-23T11:08:06.046Z,5.42
2018-07-23T11:10:34.245Z,5.15
2018-07-23T11:13:02.934Z,5.37
2018-07-23T11:15:31.448Z,5.30
2018-07-23T11:18:00.022Z,4.80
2018-07-23T11:20:28.592Z,5.53
2018-07-23T11:23:00.611Z,4.35
2018-07-23T11:25:41.037Z,4.15
2018-07-23T11:28:01.254Z,5.22
2018-07-23T11:30:29.758Z,4.50
2018-07-23T11:32:58.396Z,5.03
2018-07-23T11:35:26.892Z,5.72
2018-07-23T11:37:57.284Z,7.37
2018-07-23T11:40:26.490Z,5.45
2018-07-23T11:42:55.734Z,4.40
2018-07-23T11:45:24.253Z,4.08
2018-07-23T11:47:52.838Z,4.75
2018-07-23T11:50:21.453Z,5.62
2018-07-23T11:52:50.030Z,5.83
2018-07-23T11:55:18.574Z,4.20
2018-07-23T11:57:47.158Z,4.40
2018-07-23T12:00:15.686Z,4.35
2018-07-23T12:02:44.220Z,4.42
2018-07-23T12:05:12.717Z,4.45
2018-07-23T12:07:41.864Z,4.35
2018-07-23T12:10:10.394Z,4.33
2018-07-23T12:15:12.871Z,4.33
2018-07-23T12:17:41.494Z,4.28
2018-07-23T12:20:10.215Z,4.90
2018-07-23T12:22:38.765Z,5.70
2018-07-23T12:25:07.313Z,3.70
2018-07-23T12:27:35.838Z,4.33
2018-07-23T12:30:04.580Z,4.50
2018-07-23T12:32:33.258Z,4.12
2018-07-23T12:35:01.639Z,6.08
2018-07-23T12:37:30.187Z,4.50
2018-07-23T12:39:58.699Z,3.87
2018-07-23T12:42:27.226Z,4.00
2018-07-23T12:44:55.737Z,7.92
2018-07-23T12:47:25.104Z,13.85
2018-07-23T12:49:53.617Z,13.43
2018-07-23T12:52:22.186Z,8.33
2018-07-23T12:54:50.719Z,6.17
2018-07-23T12:57:19.287Z,4.35
2018-07-23T12:59:47.805Z,4.33
2018-07-23T13:02:16.320Z,11.50
2018-07-23T13:04:44.838Z,4.03
2018-07-23T13:07:13.491Z,6.37
2018-07-23T13:09:42.857Z,4.30
2018-07-23T13:12:11.432Z,3.85
2018-07-23T13:14:39.912Z,3.83
2018-07-23T13:17:09.157Z,4.45
2018-07-23T13:19:37.695Z,3.70
2018-07-23T13:22:06.197Z,3.87
2018-07-23T13:24:34.718Z,3.85
2018-07-23T13:27:03.835Z,3.92
2018-07-23T13:29:32.361Z,3.77
2018-07-23T13:32:01.167Z,3.72
2018-07-23T13:34:29.712Z,3.90
2018-07-23T13:39:14.337Z,4.53
2018-07-23T13:44:24.871Z,4.40
2018-07-23T13:46:53.379Z,4.28
2018-07-23T13:49:21.922Z,3.60
2018-07-23T13:51:50.413Z,3.87
2018-07-23T13:54:18.943Z,3.87
2018-07-23T13:56:47.470Z,5.30
2018-07-23T13:59:16.083Z,4.25
2018-07-23T14:01:44.616Z,4.95
2018-07-23T14:04:13.170Z,6.58
2018-07-23T14:06:42.190Z,9.20
2018-07-23T14:09:12.026Z,13.58
2018-07-23T14:11:41.542Z,18.37
2018-07-23T14:14:10.118Z,33.10
2018-07-23T14:16:38.617Z,50.58
2018-07-23T14:19:07.223Z,76.05
2018-07-23T14:21:35.875Z,107.07
2018-07-23T14:24:04.319Z,139.20
2018-07-23T14:26:33.345Z,174.15
2018-07-23T14:29:01.963Z,213.28
2018-07-23T14:31:30.466Z,248.40
2018-07-23T14:33:58.985Z,279.82
2018-07-23T14:36:27.518Z,305.02
2018-07-23T14:38:56.100Z,324.32
2018-07-23T14:41:24.663Z,340.75
2018-07-23T14:43:53.186Z,346.50
2018-07-23T14:46:21.766Z,350.27
2018-07-23T14:48:50.285Z,346.93
2018-07-23T14:51:19.350Z,351.98
2018-07-23T14:53:47.857Z,354.77
2018-07-23T14:56:16.728Z,351.88
2018-07-23T14:58:45.230Z,348.82
2018-07-23T15:01:13.708Z,356.93
2018-07-23T15:03:42.996Z,353.88
2018-07-23T15:06:13.915Z,291.05
2018-07-23T15:08:42.438Z,115.90
2018-07-23T15:11:10.912Z,57.50
2018-07-23T15:13:39.458Z,71.85
2018-07-23T15:16:08.001Z,88.60
2018-07-23T15:18:36.605Z,102.05
2018-07-23T15:21:05.543Z,111.40
2018-07-23T15:23:34.683Z,119.87
2018-07-23T15:26:03.309Z,132.27
2018-07-23T15:28:33.237Z,138.92
2018-07-23T15:31:01.811Z,144.07
2018-07-23T15:33:31.131Z,141.43
2018-07-23T15:36:00.310Z,140.43
2018-07-23T15:38:29.146Z,144.28
2018-07-23T15:40:57.907Z,151.95
2018-07-23T15:43:27.205Z,154.23
2018-07-23T15:45:56.287Z,103.15
2018-07-23T15:48:25.008Z,55.67
2018-07-23T15:50:53.868Z,40.28
2018-07-23T15:53:22.623Z,38.15
2018-07-23T15:55:51.345Z,14.95
2018-07-23T15:58:19.979Z,10.50
2018-07-23T16:00:48.782Z,14.85
2018-07-23T16:03:18.394Z,23.40
2018-07-23T16:05:47.023Z,30.68
2018-07-23T16:08:16.428Z,38.75
2018-07-23T16:10:45.055Z,47.03
2018-07-23T16:13:13.722Z,55.80
2018-07-23T16:15:42.303Z,62.00
2018-07-23T16:18:11.821Z,66.17
2018-07-23T16:20:40.437Z,67.50
2018-07-23T16:23:09.030Z,71.28
2018-07-23T16:25:37.607Z,73.05
2018-07-23T16:28:06.365Z,70.72
2018-07-23T16:30:34.972Z,70.80
2018-07-23T16:33:04.530Z,69.60
2018-07-23T16:35:36.512Z,68.80
2018-07-23T16:38:05.228Z,60.58
2018-07-23T16:40:33.876Z,54.03
2018-07-23T16:43:07.933Z,46.08
2018-07-23T16:45:37.446Z,42.15
2018-07-23T16:48:07.565Z,35.85
2018-07-23T16:50:36.132Z,34.98
2018-07-23T16:53:04.699Z,33.75
2018-07-23T16:55:33.623Z,32.58
2018-07-23T16:58:03.230Z,29.30
2018-07-23T17:00:35.844Z,20.60
2018-07-23T17:03:05.777Z,10.25
2018-07-23T17:05:34.613Z,4.70
2018-07-23T17:08:03.281Z,5.50
2018-07-23T17:10:32.062Z,5.05
2018-07-23T17:13:01.222Z,4.33
2018-07-23T17:15:30.097Z,3.87
2018-07-23T17:17:58.749Z,4.08
2018-07-23T17:20:27.313Z,3.67
2018-07-23T17:22:55.879Z,3.47
2018-07-23T17:25:24.059Z,4.65
2018-07-23T17:27:53.495Z,3.20
2018-07-23T17:30:22.656Z,3.65
2018-07-23T17:32:52.329Z,3.33
2018-07-23T17:35:20.833Z,3.75
2018-07-23T17:37:50.165Z,3.00
2018-07-23T17:40:18.761Z,3.47
2018-07-23T17:42:47.351Z,3.25
2018-07-23T17:45:15.975Z,3.40
2018-07-23T17:47:44.828Z,4.97
2018-07-23T17:50:13.462Z,3.70
2018-07-23T17:52:42.036Z,3.37
2018-07-23T17:55:10.642Z,4.55
2018-07-23T17:57:39.174Z,3.02
2018-07-23T18:00:07.841Z,5.37
2018-07-23T18:02:39.207Z,3.10
2018-07-23T18:05:07.934Z,4.75
2018-07-23T18:07:36.478Z,4.33
2018-07-23T18:10:05.124Z,3.17
2018-07-23T18:12:34.344Z,5.03
2018-07-23T18:15:04.214Z,3.60
2018-07-23T18:17:32.807Z,3.65
2018-07-23T18:20:03.057Z,3.67
2018-07-23T18:22:32.205Z,3.80
2018-07-23T18:25:01.439Z,3.62
2018-07-23T18:27:29.915Z,74.95
2018-07-23T18:29:58.469Z,62.40
2018-07-23T18:32:27.061Z,55.55
2018-07-23T18:34:55.619Z,51.28
2018-07-23T18:37:24.305Z,67.80
2018-07-23T18:39:52.869Z,52.38
2018-07-23T18:42:22.473Z,51.88
2018-07-23T18:44:51.023Z,57.55
2018-07-23T18:47:19.566Z,38.38
2018-07-23T18:49:54.812Z,56.50
2018-07-23T18:52:25.585Z,46.40
2018-07-23T18:54:55.788Z,49.18
2018-07-23T18:57:25.894Z,31.82
2018-07-23T18:59:56.364Z,55.70
2018-07-23T19:02:24.923Z,4.62
2018-07-23T19:04:53.457Z,4.03
2018-07-23T19:07:22.080Z,6.55
2018-07-23T19:09:51.701Z,40.23
2018-07-23T19:12:22.739Z,5.47
2018-07-23T19:14:51.269Z,4.87
2018-07-23T19:17:19.857Z,8.15
2018-07-23T19:19:49.307Z,4.95
2018-07-23T19:22:18.727Z,3.83
2018-07-23T19:24:50.164Z,28.27
2018-07-23T19:27:18.848Z,7.17
2018-07-23T19:29:48.112Z,17.98
2018-07-23T19:32:18.291Z,16.82
2018-07-23T19:34:47.003Z,5.78
2018-07-23T19:37:17.695Z,11.57
2018-07-23T19:39:47.361Z,6.08
2018-07-23T19:44:51.749Z,7.10
2018-07-23T19:47:21.152Z,7.72
2018-07-23T19:49:50.410Z,8.93
2018-07-23T19:52:20.837Z,6.17
2018-07-23T19:54:49.902Z,7.45
2018-07-23T19:57:20.101Z,10.32
2018-07-23T19:59:48.600Z,7.20
2018-07-23T20:02:18.183Z,7.30
2018-07-23T20:04:47.486Z,15.70
2018-07-23T20:07:16.429Z,10.15
2018-07-23T20:09:44.984Z,11.12
2018-07-23T20:12:13.601Z,6.33
2018-07-23T20:14:42.130Z,10.82
2018-07-23T20:17:11.301Z,9.55
2018-07-23T20:19:40.692Z,8.43
2018-07-23T20:22:10.172Z,7.58
2018-07-23T20:24:38.699Z,7.30
2018-07-23T20:27:07.887Z,10.03
2018-07-23T20:29:36.508Z,8.23
2018-07-23T20:32:05.053Z,7.33
2018-07-23T20:34:34.418Z,7.90
2018-07-23T20:37:04.082Z,7.15
2018-07-23T20:39:33.828Z,8.15
2018-07-23T20:42:02.612Z,8.63
2018-07-23T20:44:31.215Z,10.58
2018-07-23T20:47:00.640Z,6.95
2018-07-23T20:49:30.108Z,7.30
2018-07-23T20:51:58.641Z,9.05
2018-07-23T20:54:27.119Z,9.45
2018-07-23T20:56:55.618Z,11.85
2018-07-23T20:59:24.227Z,10.72
2018-07-23T21:01:52.758Z,11.53
2018-07-23T21:04:21.310Z,10.88
2018-07-23T21:06:49.902Z,10.48
2018-07-23T21:09:18.454Z,8.73
2018-07-23T21:11:46.934Z,8.73
2018-07-23T21:14:15.510Z,9.15
2018-07-23T21:16:44.912Z,10.58
2018-07-23T21:19:13.514Z,10.60
2018-07-23T21:21:42.057Z,8.18
2018-07-23T21:24:10.553Z,7.00
2018-07-23T21:26:38.705Z,8.03
2018-07-23T21:29:07.338Z,7.87
2018-07-23T21:31:35.821Z,10.70
2018-07-23T21:34:04.328Z,8.55
2018-07-23T21:36:32.822Z,8.78
